createdAt,value
2023-01-23T00:00:17.822Z,359.00
2023-01-23T00:01:17.443Z,355.00
2023-01-23T00:02:17.501Z,356.00
2023-01-23T00:03:17.404Z,356.00
2023-01-23T00:04:17.424Z,355.00
2023-01-23T00:05:17.388Z,354.00
2023-01-23T00:06:17.357Z,352.00
2023-01-23T00:07:17.345Z,354.00
2023-01-23T00:08:17.412Z,355.00
2023-01-23T00:09:17.308Z,356.00
2023-01-23T00:10:17.452Z,353.00
2023-01-23T00:11:17.274Z,352.00
2023-01-23T00:12:17.265Z,351.00
2023-01-23T00:13:17.249Z,353.00
2023-01-23T00:14:17.228Z,351.00
2023-01-23T00:15:17.222Z,350.00
2023-01-23T00:16:17.202Z,353.00
2023-01-23T00:17:17.191Z,353.00
2023-01-23T00:18:17.169Z,357.00
2023-01-23T00:19:17.170Z,359.00
2023-01-23T00:20:17.411Z,362.00
2023-01-23T00:21:17.126Z,356.00
2023-01-23T00:22:17.115Z,355.00
2023-01-23T00:23:17.083Z,356.00
2023-01-23T00:24:17.176Z,357.00
2023-01-23T00:25:17.062Z,355.00
2023-01-23T00:26:17.054Z,354.00
2023-01-23T00:27:17.023Z,353.00
2023-01-23T00:28:17.013Z,356.00
2023-01-23T00:29:16.999Z,353.00
2023-01-23T00:30:17.087Z,352.00
2023-01-23T00:31:17.048Z,354.00
2023-01-23T00:32:16.946Z,354.00
2023-01-23T00:33:16.940Z,354.00
2023-01-23T00:34:16.920Z,355.00
2023-01-23T00:35:16.917Z,356.00
2023-01-23T00:36:16.902Z,353.00
2023-01-23T00:37:16.873Z,355.00
2023-01-23T00:38:16.917Z,356.00
2023-01-23T00:39:16.841Z,360.00
2023-01-23T00:40:17.101Z,360.00
2023-01-23T00:41:16.818Z,355.00
2023-01-23T00:42:16.799Z,350.00
2023-01-23T00:43:16.814Z,350.00
2023-01-23T00:44:16.784Z,350.00
2023-01-23T00:45:16.783Z,349.00
2023-01-23T00:46:16.804Z,352.00
2023-01-23T00:47:16.754Z,350.00
2023-01-23T00:48:16.735Z,349.00
2023-01-23T00:49:16.725Z,347.00
2023-01-23T00:50:16.777Z,349.00
2023-01-23T00:51:16.781Z,352.00
2023-01-23T00:52:16.662Z,355.00
2023-01-23T00:53:16.659Z,355.00
2023-01-23T00:54:16.650Z,357.00
2023-01-23T00:55:16.626Z,356.00
2023-01-23T00:56:16.703Z,355.00
2023-01-23T00:57:16.597Z,356.00
2023-01-23T00:58:16.577Z,358.00
2023-01-23T00:59:16.566Z,357.00
2023-01-23T01:00:16.772Z,359.00
2023-01-23T01:01:16.605Z,360.00
2023-01-23T01:02:16.513Z,359.00
2023-01-23T01:03:16.487Z,359.00
2023-01-23T01:04:16.473Z,358.00
2023-01-23T01:05:16.455Z,356.00
2023-01-23T01:06:16.450Z,353.00
2023-01-23T01:07:16.418Z,349.00
2023-01-23T01:08:16.408Z,350.00
2023-01-23T01:09:16.384Z,349.00
2023-01-23T01:10:16.394Z,350.00
2023-01-23T01:11:16.379Z,351.00
2023-01-23T01:12:16.446Z,354.00
2023-01-23T01:13:16.314Z,352.00
2023-01-23T01:14:16.299Z,352.00
2023-01-23T01:15:16.287Z,351.00
2023-01-23T01:16:16.316Z,350.00
2023-01-23T01:17:16.250Z,352.00
2023-01-23T01:18:16.250Z,354.00
2023-01-23T01:19:16.234Z,352.00
2023-01-23T01:20:16.217Z,353.00
2023-01-23T01:21:16.209Z,352.00
2023-01-23T01:22:16.196Z,353.00
2023-01-23T01:23:16.176Z,352.00
2023-01-23T01:24:16.175Z,355.00
2023-01-23T01:25:16.156Z,357.00
2023-01-23T01:26:16.147Z,356.00
2023-01-23T01:27:16.123Z,351.00
2023-01-23T01:28:16.213Z,355.00
2023-01-23T01:29:16.098Z,355.00
2023-01-23T01:30:16.108Z,355.00
2023-01-23T01:31:16.194Z,355.00
2023-01-23T01:32:16.092Z,355.00
2023-01-23T01:33:16.075Z,361.00
2023-01-23T01:34:16.076Z,360.00
2023-01-23T01:35:16.042Z,359.00
2023-01-23T01:36:16.054Z,358.00
2023-01-23T01:37:16.030Z,360.00
2023-01-23T01:38:16.015Z,361.00
2023-01-23T01:39:15.997Z,358.00
2023-01-23T01:40:15.987Z,356.00
2023-01-23T01:41:16.005Z,356.00
2023-01-23T01:42:15.992Z,354.00
2023-01-23T01:43:15.956Z,357.00
2023-01-23T01:44:16.038Z,356.00
2023-01-23T01:45:15.941Z,353.00
2023-01-23T01:46:16.014Z,353.00
2023-01-23T01:47:15.926Z,354.00
2023-01-23T01:48:15.919Z,354.00
2023-01-23T01:49:15.908Z,352.00
2023-01-23T01:50:15.895Z,353.00
2023-01-23T01:51:15.920Z,355.00
2023-01-23T01:52:15.881Z,357.00
2023-01-23T01:53:15.856Z,355.00
2023-01-23T01:54:15.838Z,359.00
2023-01-23T01:55:15.818Z,363.00
2023-01-23T01:56:15.830Z,358.00
2023-01-23T01:57:15.800Z,357.00
2023-01-23T01:58:15.763Z,358.00
2023-01-23T01:59:15.751Z,361.00
2023-01-23T02:00:15.831Z,363.00
2023-01-23T02:01:15.720Z,366.00
2023-01-23T02:02:15.770Z,365.00
2023-01-23T02:03:15.700Z,366.00
2023-01-23T02:04:15.698Z,361.00
2023-01-23T02:05:15.668Z,359.00
2023-01-23T02:06:15.664Z,362.00
2023-01-23T02:07:15.643Z,361.00
2023-01-23T02:08:15.633Z,357.00
2023-01-23T02:09:15.619Z,355.00
2023-01-23T02:10:15.611Z,356.00
2023-01-23T02:11:15.597Z,354.00
2023-01-23T02:12:15.582Z,355.00
2023-01-23T02:13:15.567Z,357.00
2023-01-23T02:14:15.565Z,361.00
2023-01-23T02:15:15.541Z,360.00
2023-01-23T02:16:15.695Z,359.00
2023-01-23T02:17:15.508Z,358.00
2023-01-23T02:18:15.496Z,358.00
2023-01-23T02:19:15.487Z,355.00
2023-01-23T02:20:15.477Z,359.00
2023-01-23T02:21:15.465Z,357.00
2023-01-23T02:22:15.446Z,361.00
2023-01-23T02:23:15.425Z,361.00
2023-01-23T02:24:15.418Z,358.00
2023-01-23T02:25:15.419Z,355.00
2023-01-23T02:26:15.397Z,356.00
2023-01-23T02:27:15.394Z,358.00
2023-01-23T02:28:15.373Z,356.00
2023-01-23T02:29:15.356Z,358.00
2023-01-23T02:30:15.355Z,356.00
2023-01-23T02:31:15.503Z,355.00
2023-01-23T02:32:15.424Z,356.00
2023-01-23T02:33:15.309Z,350.00
2023-01-23T02:34:15.328Z,354.00
2023-01-23T02:35:15.284Z,355.00
2023-01-23T02:36:15.277Z,353.00
2023-01-23T02:37:15.268Z,357.00
2023-01-23T02:38:15.250Z,359.00
2023-01-23T02:39:15.255Z,356.00
2023-01-23T02:40:15.221Z,355.00
2023-01-23T02:41:15.226Z,353.00
2023-01-23T02:42:15.195Z,351.00
2023-01-23T02:43:15.176Z,353.00
2023-01-23T02:44:15.170Z,350.00
2023-01-23T02:45:15.157Z,350.00
2023-01-23T02:46:15.140Z,351.00
2023-01-23T02:47:15.135Z,350.00
2023-01-23T02:48:15.184Z,352.00
2023-01-23T02:49:15.083Z,349.00
2023-01-23T02:50:15.060Z,352.00
2023-01-23T02:51:15.144Z,353.00
2023-01-23T02:53:15.031Z,351.00
2023-01-23T02:54:15.017Z,351.00
2023-01-23T02:55:15.011Z,350.00
2023-01-23T02:56:15.007Z,351.00
2023-01-23T02:57:14.973Z,351.00
2023-01-23T02:58:14.969Z,350.00
2023-01-23T02:59:14.949Z,348.00
2023-01-23T06:45:12.701Z,531.00
2023-01-23T06:46:12.851Z,541.00
2023-01-23T06:47:12.690Z,605.00
2023-01-23T06:48:12.794Z,671.00
2023-01-23T06:50:12.661Z,732.00
2023-01-23T06:51:12.747Z,747.00
2023-01-23T06:52:12.663Z,776.00
2023-01-23T06:53:12.649Z,813.00
2023-01-23T06:54:13.367Z,807.00
2023-01-23T06:55:14.586Z,754.00
2023-01-23T06:56:12.637Z,753.00
2023-01-23T06:57:12.620Z,745.00
2023-01-23T06:58:12.571Z,735.00
2023-01-23T06:59:12.674Z,727.00
2023-01-23T07:00:12.564Z,719.00
2023-01-23T07:01:12.563Z,715.00
2023-01-23T07:02:12.539Z,711.00
2023-01-23T07:03:12.557Z,701.00
2023-01-23T07:04:12.600Z,691.00
2023-01-23T07:05:12.505Z,692.00
2023-01-23T07:06:12.493Z,702.00
2023-01-23T07:07:12.465Z,706.00
2023-01-23T07:08:12.461Z,702.00
2023-01-23T07:09:12.458Z,697.00
2023-01-23T07:10:12.421Z,691.00
2023-01-23T07:11:12.430Z,686.00
2023-01-23T07:12:12.387Z,681.00
2023-01-23T07:13:12.374Z,684.00
2023-01-23T07:14:12.362Z,745.00
2023-01-23T07:15:12.372Z,773.00
2023-01-23T07:16:12.427Z,858.00
2023-01-23T07:17:12.308Z,890.00
2023-01-23T07:18:12.306Z,971.00
2023-01-23T07:19:12.273Z,997.00
2023-01-23T07:20:12.271Z,1004.00
2023-01-23T07:21:12.237Z,1007.00
2023-01-23T07:22:12.219Z,1018.00
2023-01-23T07:23:12.206Z,1101.00
2023-01-23T07:24:12.163Z,1097.00
2023-01-23T07:25:12.146Z,1109.00
2023-01-23T07:26:12.133Z,1119.00
2023-01-23T07:27:12.113Z,1147.00
2023-01-23T07:28:12.093Z,1161.00
2023-01-23T07:29:12.047Z,1175.00
2023-01-23T07:30:12.010Z,1185.00
2023-01-23T07:31:12.083Z,1211.00
2023-01-23T07:32:11.940Z,1235.00
2023-01-23T07:33:11.910Z,1242.00
2023-01-23T07:34:11.873Z,1262.00
2023-01-23T07:35:11.845Z,1281.00
2023-01-23T07:36:11.818Z,1286.00
2023-01-23T07:37:11.796Z,1282.00
2023-01-23T07:38:11.742Z,1296.00
2023-01-23T07:39:11.711Z,1328.00
2023-01-23T07:40:11.696Z,1351.00
2023-01-23T07:41:11.662Z,1452.00
2023-01-23T07:42:11.595Z,1477.00
2023-01-23T07:43:11.570Z,1491.00
2023-01-23T07:44:11.523Z,1499.00
2023-01-23T07:45:11.589Z,1501.00
2023-01-23T07:46:11.518Z,1498.00
2023-01-23T07:47:11.425Z,1494.00
2023-01-23T07:48:11.387Z,1503.00
2023-01-23T07:49:11.353Z,1512.00
2023-01-23T07:50:11.355Z,1525.00
2023-01-23T07:51:11.450Z,1498.00
2023-01-23T07:52:11.360Z,1459.00
2023-01-23T07:53:11.918Z,1439.00
2023-01-23T07:54:11.191Z,1404.00
2023-01-23T07:55:11.160Z,1422.00
2023-01-23T07:56:11.586Z,1500.00
2023-01-23T07:57:11.092Z,1497.00
2023-01-23T07:58:11.076Z,1494.00
2023-01-23T07:59:11.033Z,1494.00
2023-01-23T08:00:11.035Z,1508.00
2023-01-23T08:01:10.993Z,1530.00
2023-01-23T08:02:10.955Z,1544.00
2023-01-23T08:03:10.896Z,1534.00
2023-01-23T08:04:10.868Z,1559.00
2023-01-23T08:05:10.801Z,1566.00
2023-01-23T08:06:10.769Z,1582.00
2023-01-23T08:07:10.736Z,1656.00
2023-01-23T08:08:13.707Z,1662.00
2023-01-23T08:09:10.661Z,1616.00
2023-01-23T08:10:10.599Z,1631.00
2023-01-23T08:11:10.569Z,1647.00
2023-01-23T08:12:10.542Z,1682.00
2023-01-23T08:13:10.505Z,1691.00
2023-01-23T08:14:10.438Z,1626.00
2023-01-23T08:15:10.406Z,1517.00
2023-01-23T08:16:12.699Z,1541.00
2023-01-23T08:17:10.355Z,1547.00
2023-01-23T08:18:10.311Z,1542.00
2023-01-23T08:19:10.278Z,1534.00
2023-01-23T08:20:10.251Z,1534.00
2023-01-23T08:21:10.218Z,1537.00
2023-01-23T08:22:10.170Z,1543.00
2023-01-23T08:23:10.153Z,1554.00
2023-01-23T08:24:10.188Z,1625.00
2023-01-23T08:25:10.067Z,1660.00
2023-01-23T08:26:10.023Z,1645.00
2023-01-23T08:27:09.979Z,1622.00
2023-01-23T08:28:09.955Z,1612.00
2023-01-23T08:29:09.909Z,1624.00
2023-01-23T08:30:09.877Z,1628.00
2023-01-23T08:31:09.929Z,1644.00
2023-01-23T08:32:09.933Z,1674.00
2023-01-23T08:33:09.755Z,1639.00
2023-01-23T08:34:09.724Z,1688.00
2023-01-23T08:35:09.688Z,1699.00
2023-01-23T08:36:11.332Z,1708.00
2023-01-23T08:37:09.631Z,1746.00
2023-01-23T08:38:09.632Z,1785.00
2023-01-23T08:39:09.557Z,1284.00
2023-01-23T08:40:09.646Z,1020.00
2023-01-23T08:41:09.493Z,802.00
2023-01-23T08:42:09.495Z,669.00
2023-01-23T08:43:09.505Z,610.00
2023-01-23T08:44:09.467Z,622.00
2023-01-23T08:45:09.472Z,734.00
2023-01-23T08:46:09.466Z,751.00
2023-01-23T08:47:09.436Z,754.00
2023-01-23T08:48:09.448Z,784.00
2023-01-23T08:49:11.251Z,836.00
2023-01-23T08:50:09.578Z,880.00
2023-01-23T08:51:09.458Z,894.00
2023-01-23T08:52:09.437Z,891.00
2023-01-23T08:53:09.426Z,903.00
2023-01-23T08:54:09.414Z,932.00
2023-01-23T08:55:09.379Z,957.00
2023-01-23T08:56:09.462Z,990.00
2023-01-23T08:57:09.352Z,1017.00
2023-01-23T08:58:09.352Z,1014.00
2023-01-23T08:59:09.326Z,1005.00
2023-01-23T09:00:09.306Z,797.00
2023-01-23T09:01:09.360Z,619.00
2023-01-23T09:02:09.342Z,485.00
2023-01-23T09:03:11.356Z,615.00
2023-01-23T09:04:09.313Z,674.00
2023-01-23T09:05:09.332Z,726.00
2023-01-23T09:06:09.326Z,756.00
2023-01-23T09:07:09.345Z,787.00
2023-01-23T09:08:09.341Z,821.00
2023-01-23T09:09:09.335Z,877.00
2023-01-23T09:10:09.398Z,897.00
2023-01-23T09:11:09.362Z,890.00
2023-01-23T09:12:09.435Z,895.00
2023-01-23T09:13:09.338Z,919.00
2023-01-23T09:14:09.340Z,964.00
2023-01-23T09:15:09.337Z,987.00
2023-01-23T09:16:09.370Z,986.00
2023-01-23T09:17:09.299Z,985.00
2023-01-23T09:18:09.322Z,996.00
2023-01-23T09:19:09.293Z,1057.00
2023-01-23T09:20:09.284Z,1057.00
2023-01-23T09:21:09.273Z,1090.00
2023-01-23T09:22:09.269Z,1102.00
2023-01-23T09:23:09.270Z,1084.00
2023-01-23T09:24:09.235Z,1087.00
2023-01-23T09:25:09.225Z,1076.00
2023-01-23T09:26:09.228Z,1069.00
2023-01-23T09:27:09.178Z,1081.00
2023-01-23T09:28:09.288Z,953.00
2023-01-23T09:29:09.159Z,870.00
2023-01-23T09:30:09.172Z,820.00
2023-01-23T09:31:09.132Z,919.00
2023-01-23T09:32:09.132Z,983.00
2023-01-23T09:33:09.123Z,888.00
2023-01-23T09:34:09.128Z,750.00
2023-01-23T09:35:09.115Z,742.00
2023-01-23T09:36:09.120Z,741.00
2023-01-23T09:37:09.107Z,749.00
2023-01-23T09:38:09.106Z,751.00
2023-01-23T09:39:09.148Z,751.00
2023-01-23T09:40:09.096Z,744.00
2023-01-23T09:41:09.104Z,734.00
2023-01-23T09:42:09.100Z,720.00
2023-01-23T09:43:09.105Z,717.00
2023-01-23T09:44:09.201Z,722.00
2023-01-23T09:45:09.090Z,721.00
2023-01-23T09:46:09.099Z,715.00
2023-01-23T09:47:09.073Z,795.00
2023-01-23T09:48:09.078Z,805.00
2023-01-23T09:49:09.083Z,803.00
2023-01-23T09:50:09.059Z,800.00
2023-01-23T09:51:09.064Z,727.00
2023-01-23T09:52:09.049Z,685.00
2023-01-23T09:53:09.051Z,682.00
2023-01-23T09:54:09.061Z,680.00
2023-01-23T09:55:09.059Z,675.00
2023-01-23T09:56:09.073Z,677.00
2023-01-23T09:57:09.087Z,677.00
2023-01-23T09:58:09.095Z,675.00
2023-01-23T09:59:09.106Z,691.00
2023-01-23T10:00:09.205Z,713.00
2023-01-23T10:01:09.157Z,726.00
2023-01-23T10:02:09.153Z,736.00
2023-01-23T10:03:09.120Z,733.00
2023-01-23T10:04:09.142Z,732.00
2023-01-23T10:05:09.112Z,737.00
2023-01-23T10:06:09.105Z,739.00
2023-01-23T10:07:09.106Z,743.00
2023-01-23T10:08:09.094Z,745.00
2023-01-23T10:09:09.087Z,722.00
2023-01-23T10:10:09.149Z,723.00
2023-01-23T10:11:09.061Z,726.00
2023-01-23T10:12:09.060Z,734.00
2023-01-23T10:13:09.085Z,736.00
2023-01-23T10:14:09.032Z,720.00
2023-01-23T10:15:09.020Z,715.00
2023-01-23T10:16:09.108Z,717.00
2023-01-23T10:17:09.041Z,720.00
2023-01-23T10:18:08.986Z,721.00
2023-01-23T10:19:08.973Z,718.00
2023-01-23T10:20:08.956Z,708.00
2023-01-23T10:21:08.967Z,702.00
2023-01-23T10:22:08.926Z,704.00
2023-01-23T10:23:08.963Z,710.00
2023-01-23T10:24:08.919Z,708.00
2023-01-23T10:25:09.000Z,698.00
2023-01-23T10:26:08.918Z,694.00
2023-01-23T11:27:07.451Z,814.00
2023-01-23T11:28:07.415Z,867.00
2023-01-23T11:29:09.295Z,884.00
2023-01-23T11:30:07.530Z,900.00
2023-01-23T11:31:14.662Z,897.00
2023-01-23T11:32:08.653Z,902.00
2023-01-23T11:33:07.501Z,936.00
2023-01-23T11:34:07.402Z,1035.00
2023-01-23T11:35:08.619Z,1028.00
2023-01-23T11:36:07.419Z,1080.00
2023-01-23T11:37:07.303Z,1143.00
2023-01-23T11:38:07.270Z,1159.00
2023-01-23T11:39:07.239Z,1172.00
2023-01-23T11:40:07.219Z,1241.00
2023-01-23T11:41:07.193Z,1271.00
2023-01-23T11:42:07.140Z,1251.00
2023-01-23T11:43:07.112Z,1243.00
2023-01-23T11:44:07.892Z,1253.00
2023-01-23T11:45:07.059Z,1245.00
2023-01-23T11:46:07.048Z,1248.00
2023-01-23T11:47:06.938Z,1255.00
2023-01-23T11:48:06.887Z,1271.00
2023-01-23T11:49:06.848Z,1309.00
2023-01-23T11:50:06.818Z,1306.00
2023-01-23T11:51:06.808Z,1318.00
2023-01-23T11:52:06.814Z,1341.00
2023-01-23T11:53:06.711Z,1351.00
2023-01-23T11:54:06.757Z,1373.00
2023-01-23T11:55:06.675Z,1408.00
2023-01-23T11:56:06.597Z,1410.00
2023-01-23T11:57:06.793Z,1406.00
2023-01-23T11:58:06.525Z,1407.00
2023-01-23T11:59:06.459Z,1415.00
2023-01-23T12:00:06.797Z,1424.00
2023-01-23T12:01:06.359Z,1480.00
2023-01-23T12:02:06.320Z,1480.00
2023-01-23T12:03:06.331Z,1462.00
2023-01-23T12:04:06.281Z,1466.00
2023-01-23T12:05:06.273Z,1468.00
2023-01-23T12:06:19.301Z,1515.00
2023-01-23T12:07:07.132Z,1544.00
2023-01-23T12:08:06.182Z,1545.00
2023-01-23T12:09:06.032Z,1541.00
2023-01-23T12:10:06.038Z,1549.00
2023-01-23T12:11:05.965Z,1565.00
2023-01-23T12:12:05.980Z,1608.00
2023-01-23T12:13:05.901Z,1615.00
2023-01-23T12:14:05.863Z,1599.00
2023-01-23T12:15:05.801Z,1603.00
2023-01-23T12:16:05.904Z,1609.00
2023-01-23T12:17:05.713Z,1640.00
2023-01-23T12:18:05.701Z,1710.00
2023-01-23T12:19:05.628Z,1718.00
2023-01-23T12:20:05.595Z,1705.00
2023-01-23T12:21:05.596Z,1685.00
2023-01-23T12:22:05.683Z,1681.00
2023-01-23T12:23:05.511Z,1698.00
2023-01-23T12:24:05.540Z,1707.00
2023-01-23T12:25:05.397Z,1682.00
2023-01-23T12:26:05.369Z,1654.00
2023-01-23T12:27:05.347Z,1596.00
2023-01-23T12:28:05.292Z,1578.00
2023-01-23T12:29:05.258Z,1608.00
2023-01-23T12:30:05.230Z,1624.00
2023-01-23T12:31:05.750Z,1611.00
2023-01-23T12:32:05.225Z,1519.00
2023-01-23T12:33:05.106Z,1380.00
2023-01-23T12:34:05.069Z,1455.00
2023-01-23T12:35:05.038Z,1375.00
2023-01-23T12:36:05.007Z,1409.00
2023-01-23T12:37:12.028Z,1408.00
2023-01-23T12:38:05.941Z,1288.00
2023-01-23T12:39:04.886Z,1228.00
2023-01-23T12:40:06.541Z,1214.00
2023-01-23T12:41:04.838Z,1214.00
2023-01-23T12:42:04.846Z,1261.00
2023-01-23T12:43:04.774Z,1247.00
2023-01-23T12:44:04.738Z,1201.00
2023-01-23T12:45:04.707Z,1130.00
2023-01-23T12:46:04.658Z,1134.00
2023-01-23T12:47:04.677Z,1138.00
2023-01-23T12:48:04.590Z,1141.00
2023-01-23T12:49:04.553Z,1133.00
2023-01-23T12:50:04.533Z,1119.00
2023-01-23T12:51:04.559Z,1083.00
2023-01-23T12:52:04.460Z,1036.00
2023-01-23T12:53:04.425Z,1043.00
2023-01-23T12:54:04.392Z,1059.00
2023-01-23T12:55:04.362Z,1058.00
2023-01-23T12:56:04.432Z,1043.00
2023-01-23T12:57:04.304Z,1039.00
2023-01-23T12:58:09.303Z,1027.00
2023-01-23T12:59:05.245Z,1008.00
2023-01-23T13:00:04.227Z,1016.00
2023-01-23T13:01:04.227Z,1013.00
2023-01-23T13:02:04.213Z,1008.00
2023-01-23T13:03:04.122Z,1000.00
2023-01-23T13:04:04.096Z,981.00
2023-01-23T13:05:04.093Z,973.00
2023-01-23T13:06:04.057Z,980.00
2023-01-23T13:07:04.022Z,979.00
2023-01-23T13:08:04.000Z,975.00
2023-01-23T13:09:16.670Z,966.00
2023-01-23T13:10:04.959Z,953.00
2023-01-23T13:11:03.927Z,929.00
2023-01-23T13:12:03.988Z,938.00
2023-01-23T13:13:03.893Z,945.00
2023-01-23T13:14:03.828Z,942.00
2023-01-23T13:15:13.971Z,937.00
2023-01-23T13:17:03.835Z,922.00
2023-01-23T13:18:03.753Z,929.00
2023-01-23T13:19:03.699Z,933.00
2023-01-23T13:20:03.672Z,926.00
2023-01-23T13:21:03.663Z,920.00
2023-01-23T13:22:04.765Z,910.00
2023-01-23T13:23:03.581Z,903.00
2023-01-23T14:05:02.360Z,816.00
2023-01-23T14:06:02.331Z,820.00
2023-01-23T14:07:02.300Z,817.00
2023-01-23T14:08:02.279Z,812.00
2023-01-23T14:09:02.244Z,814.00
2023-01-23T14:10:02.225Z,813.00
2023-01-23T14:11:02.193Z,813.00
2023-01-23T14:12:02.159Z,813.00
2023-01-23T14:13:02.141Z,805.00
2023-01-23T14:14:02.121Z,802.00
2023-01-23T14:15:02.084Z,800.00
2023-01-23T14:16:02.164Z,801.00
2023-01-23T14:17:02.062Z,802.00
2023-01-23T14:18:02.026Z,801.00
2023-01-23T14:19:01.985Z,797.00
2023-01-23T14:20:01.963Z,790.00
2023-01-23T14:21:01.945Z,782.00
2023-01-23T14:22:01.914Z,784.00
2023-01-23T14:23:01.932Z,787.00
2023-01-23T14:24:01.848Z,785.00
2023-01-23T14:25:01.824Z,781.00
2023-01-23T14:26:01.803Z,782.00
2023-01-23T14:27:07.272Z,790.00
2023-01-23T14:28:02.766Z,791.00
2023-01-23T14:29:01.715Z,790.00
2023-01-23T14:30:01.678Z,785.00
2023-01-23T14:31:01.690Z,786.00
2023-01-23T14:32:01.720Z,785.00
2023-01-23T14:33:01.637Z,785.00
2023-01-23T14:34:09.117Z,787.00
2023-01-23T14:35:02.533Z,782.00
2023-01-23T14:36:01.515Z,778.00
2023-01-23T14:37:01.469Z,776.00
2023-01-23T14:38:01.444Z,775.00
2023-01-23T14:39:01.417Z,778.00
2023-01-23T14:40:09.840Z,776.00
2023-01-23T14:41:02.370Z,775.00
2023-01-23T14:42:02.822Z,766.00
2023-01-23T14:43:01.327Z,767.00
2023-01-23T14:44:01.291Z,765.00
2023-01-23T14:45:01.426Z,764.00
2023-01-23T14:46:01.262Z,766.00
2023-01-23T14:47:01.214Z,759.00
2023-01-23T14:48:07.404Z,758.00
2023-01-23T14:49:02.179Z,757.00
2023-01-23T14:50:01.137Z,753.00
2023-01-23T14:51:01.118Z,756.00
2023-01-23T14:52:01.094Z,750.00
2023-01-23T14:53:01.154Z,747.00
2023-01-23T14:54:01.050Z,749.00
2023-01-23T14:55:07.297Z,745.00
2023-01-23T14:56:01.992Z,745.00
2023-01-23T14:57:00.959Z,745.00
2023-01-23T14:58:00.946Z,742.00
2023-01-23T14:59:00.919Z,741.00
2023-01-23T15:00:00.875Z,741.00
2023-01-23T15:01:00.894Z,738.00
2023-01-23T15:02:03.374Z,738.00
2023-01-23T15:03:00.881Z,733.00
2023-01-23T15:04:00.871Z,731.00
2023-01-23T15:05:00.755Z,728.00
2023-01-23T15:06:00.742Z,732.00
2023-01-23T15:07:00.701Z,735.00
2023-01-23T15:08:00.700Z,732.00
2023-01-23T15:09:00.648Z,731.00
2023-01-23T15:10:00.644Z,730.00
2023-01-23T15:11:00.650Z,729.00
2023-01-23T15:12:00.587Z,730.00
2023-01-23T15:13:00.583Z,725.00
2023-01-23T15:14:00.556Z,717.00
2023-01-23T15:15:00.520Z,720.00
2023-01-23T15:16:00.518Z,725.00
2023-01-23T15:17:00.532Z,723.00
2023-01-23T15:18:01.269Z,719.00
2023-01-23T15:19:00.427Z,711.00
2023-01-23T15:20:01.164Z,709.00
2023-01-23T15:21:00.363Z,712.00
2023-01-23T15:22:00.347Z,714.00
2023-01-23T15:23:00.313Z,714.00
2023-01-23T15:24:00.337Z,715.00
2023-01-23T15:25:00.270Z,713.00
2023-01-23T15:26:05.220Z,716.00
2023-01-23T15:27:01.207Z,716.00
2023-01-23T15:28:00.169Z,716.00
2023-01-23T15:29:00.171Z,716.00
2023-01-23T15:30:00.137Z,714.00
2023-01-23T15:31:00.262Z,709.00
2023-01-23T15:32:00.140Z,709.00
2023-01-23T15:33:00.083Z,710.00
2023-01-23T15:34:00.022Z,707.00
2023-01-23T15:34:59.995Z,710.00
2023-01-23T15:36:00.170Z,709.00
2023-01-23T15:36:59.944Z,711.00
2023-01-23T15:37:59.937Z,714.00
2023-01-23T15:38:59.911Z,716.00
2023-01-23T15:39:59.864Z,714.00
2023-01-23T15:40:59.855Z,714.00
2023-01-23T15:41:59.816Z,713.00
2023-01-23T15:42:59.818Z,714.00
2023-01-23T15:43:59.781Z,711.00
2023-01-23T15:44:59.757Z,712.00
2023-01-23T15:45:59.797Z,711.00
2023-01-23T15:46:59.708Z,713.00
2023-01-23T15:47:59.691Z,714.00
2023-01-23T15:48:59.677Z,713.00
2023-01-23T15:49:59.647Z,712.00
2023-01-23T15:50:59.620Z,710.00
2023-01-23T15:51:59.689Z,706.00
2023-01-23T15:52:59.576Z,703.00
2023-01-23T15:53:59.553Z,707.00
2023-01-23T15:54:59.585Z,708.00
2023-01-23T15:56:01.444Z,708.00
2023-01-23T15:57:07.553Z,708.00
2023-01-23T15:58:01.923Z,707.00
2023-01-23T15:58:59.449Z,707.00
2023-01-23T15:59:59.415Z,705.00
2023-01-23T16:00:59.403Z,705.00
2023-01-23T16:01:59.373Z,703.00
2023-01-23T16:02:59.437Z,704.00
2023-01-23T16:03:59.335Z,701.00
2023-01-23T16:04:59.322Z,702.00
2023-01-23T16:05:59.306Z,701.00
2023-01-23T16:06:59.277Z,701.00
2023-01-23T16:07:59.353Z,701.00
2023-01-23T16:09:05.222Z,703.00
2023-01-23T16:10:00.226Z,700.00
2023-01-23T16:10:59.214Z,703.00
2023-01-23T16:11:59.193Z,701.00
2023-01-23T16:12:59.183Z,697.00
2023-01-23T16:13:59.151Z,698.00
2023-01-23T16:14:59.140Z,700.00
2023-01-23T16:15:59.163Z,700.00
2023-01-23T16:17:11.402Z,701.00
2023-01-23T16:18:00.181Z,697.00
2023-01-23T16:18:59.061Z,694.00
2023-01-23T16:19:59.023Z,693.00
2023-01-23T16:20:59.009Z,692.00
2023-01-23T16:22:04.790Z,693.00
2023-01-23T16:23:59.069Z,693.00
2023-01-23T16:24:58.910Z,689.00
2023-01-23T20:43:53.476Z,537.00
2023-01-23T20:44:53.444Z,536.00
2023-01-23T20:45:53.444Z,534.00
2023-01-23T20:46:53.399Z,536.00
2023-01-23T20:47:53.388Z,534.00
2023-01-23T20:48:53.371Z,536.00
2023-01-23T20:49:53.348Z,540.00
2023-01-23T20:50:53.319Z,540.00
2023-01-23T20:51:53.299Z,541.00
2023-01-23T20:52:53.278Z,533.00
2023-01-23T20:53:53.267Z,532.00
2023-01-23T20:54:53.253Z,531.00
2023-01-23T20:55:53.313Z,531.00
2023-01-23T20:56:53.207Z,533.00
2023-01-23T20:57:53.173Z,534.00
2023-01-23T20:58:53.211Z,531.00
2023-01-23T20:59:53.155Z,532.00
2023-01-23T21:00:53.107Z,531.00
2023-01-23T21:01:53.095Z,531.00
2023-01-23T21:02:53.145Z,531.00
2023-01-23T21:03:53.053Z,531.00
2023-01-23T21:04:53.024Z,535.00
2023-01-23T21:05:53.013Z,533.00
2023-01-23T21:06:52.983Z,529.00
2023-01-23T21:07:52.973Z,526.00
2023-01-23T21:08:53.765Z,524.00
2023-01-23T21:09:52.936Z,527.00
2023-01-23T21:10:52.913Z,526.00
2023-01-23T21:11:52.980Z,525.00
2023-01-23T21:12:52.854Z,524.00
2023-01-23T21:13:52.836Z,523.00
2023-01-23T21:14:52.822Z,522.00
2023-01-23T21:15:52.804Z,523.00
2023-01-23T21:16:52.773Z,523.00
2023-01-23T21:17:52.743Z,522.00
2023-01-23T21:18:52.743Z,520.00
2023-01-23T21:19:52.695Z,520.00
2023-01-23T21:20:52.679Z,521.00
2023-01-23T21:21:52.677Z,519.00
2023-01-23T21:22:52.655Z,520.00
2023-01-23T21:23:52.638Z,519.00
2023-01-23T21:24:52.615Z,514.00
2023-01-23T21:25:52.609Z,514.00
2023-01-23T21:26:52.578Z,514.00
2023-01-23T21:27:52.640Z,514.00
2023-01-23T21:28:52.566Z,511.00
2023-01-23T21:29:52.515Z,509.00
2023-01-23T21:30:52.604Z,509.00
2023-01-23T21:31:52.517Z,508.00
2023-01-23T21:32:52.457Z,509.00
2023-01-23T21:33:52.440Z,511.00
2023-01-23T21:34:52.424Z,512.00
2023-01-23T21:35:52.414Z,513.00
2023-01-23T21:36:52.417Z,516.00
2023-01-23T21:37:52.394Z,515.00
2023-01-23T21:38:52.371Z,512.00
2023-01-23T21:39:52.377Z,514.00
2023-01-23T21:40:52.335Z,513.00
2023-01-23T21:41:52.317Z,513.00
2023-01-23T21:42:52.316Z,511.00
2023-01-23T21:43:52.368Z,513.00
2023-01-23T21:44:52.276Z,513.00
2023-01-23T21:45:52.243Z,511.00
2023-01-23T21:46:52.225Z,514.00
2023-01-23T21:47:52.217Z,512.00
2023-01-23T21:48:52.211Z,509.00
2023-01-23T21:49:52.176Z,507.00
2023-01-23T21:50:52.160Z,505.00
2023-01-23T21:51:52.148Z,503.00
2023-01-23T21:52:52.146Z,502.00
2023-01-23T21:53:52.123Z,504.00
2023-01-23T21:54:52.096Z,506.00
2023-01-23T21:55:52.086Z,508.00
2023-01-23T21:56:52.065Z,507.00
2023-01-23T21:57:52.069Z,506.00
2023-01-23T21:58:52.050Z,505.00
2023-01-23T21:59:52.106Z,504.00
2023-01-23T22:00:51.994Z,503.00
2023-01-23T22:01:52.117Z,502.00
2023-01-23T22:02:52.002Z,501.00
2023-01-23T22:03:51.923Z,503.00
2023-01-23T22:04:51.963Z,503.00
2023-01-23T22:05:51.895Z,501.00
2023-01-23T22:06:52.893Z,502.00
2023-01-23T22:07:51.845Z,502.00
2023-01-23T22:08:51.831Z,502.00
2023-01-23T22:09:51.816Z,501.00